createdAt,value
2019-06-07T00:00:56.331Z,1011.27
2019-06-07T00:01:56.395Z,1011.24
2019-06-07T00:02:56.459Z,1011.25
2019-06-07T00:03:56.531Z,1011.29
2019-06-07T00:04:56.603Z,1011.28
2019-06-07T00:05:56.651Z,1011.30
2019-06-07T00:06:56.713Z,1011.32
2019-06-07T00:08:07.163Z,1011.33
2019-06-07T00:08:56.848Z,1011.36
2019-06-07T00:09:56.912Z,1011.40
2019-06-07T00:10:56.964Z,1011.39
2019-06-07T00:11:57.031Z,1011.39
2019-06-07T00:12:57.092Z,1011.38
2019-06-07T00:13:57.169Z,1011.35
2019-06-07T00:14:57.220Z,1011.29
2019-06-07T00:15:57.289Z,1011.28
2019-06-07T00:16:57.344Z,1011.25
2019-06-07T00:17:57.414Z,1011.21
2019-06-07T00:18:57.480Z,1011.20
2019-06-07T00:19:57.544Z,1011.18
2019-06-07T00:20:57.597Z,1011.14
2019-06-07T00:22:18.442Z,1011.09
2019-06-07T00:22:57.724Z,1011.05
2019-06-07T00:23:57.830Z,1010.99
2019-06-07T00:24:57.856Z,1010.99
2019-06-07T00:25:57.916Z,1010.99
2019-06-07T00:26:59.231Z,1010.98
2019-06-07T00:27:58.040Z,1010.94
2019-06-07T00:28:58.133Z,1010.95
2019-06-07T00:29:58.168Z,1010.95
2019-06-07T00:30:58.233Z,1010.97
2019-06-07T00:31:58.292Z,1010.98
2019-06-07T00:32:58.369Z,1011.00
2019-06-07T00:33:58.429Z,1011.03
2019-06-07T00:34:58.489Z,1011.08
2019-06-07T00:35:58.545Z,1011.04
2019-06-07T00:36:58.610Z,1011.03
2019-06-07T00:37:58.673Z,1011.05
2019-06-07T00:38:58.742Z,1011.07
2019-06-07T00:40:14.002Z,1011.09
2019-06-07T00:40:58.861Z,1011.12
2019-06-07T00:41:58.925Z,1011.14
2019-06-07T00:42:58.985Z,1011.16
2019-06-07T00:43:59.057Z,1011.17
2019-06-07T00:44:59.121Z,1011.19
2019-06-07T00:45:59.178Z,1011.17
2019-06-07T00:46:59.242Z,1011.17
2019-06-07T00:47:59.301Z,1011.19
2019-06-07T00:48:59.382Z,1011.20
2019-06-07T00:49:59.429Z,1011.21
2019-06-07T00:50:59.493Z,1011.17
2019-06-07T00:51:59.554Z,1011.18
2019-06-07T00:53:14.548Z,1011.14
2019-06-07T00:53:59.690Z,1011.14
2019-06-07T00:54:59.754Z,1011.11
2019-06-07T00:55:59.811Z,1011.11
2019-06-07T00:56:59.892Z,1011.15
2019-06-07T00:57:59.935Z,1011.14
2019-06-07T00:59:11.138Z,1011.14
2019-06-07T01:00:00.066Z,1011.16
2019-06-07T01:01:00.122Z,1011.15
2019-06-07T01:02:00.187Z,1011.20
2019-06-07T01:03:00.250Z,1011.23
2019-06-07T01:04:00.314Z,1011.25
2019-06-07T01:05:00.387Z,1011.29
2019-06-07T01:06:00.438Z,1011.33
2019-06-07T01:07:00.503Z,1011.32
2019-06-07T01:08:00.566Z,1011.28
2019-06-07T01:09:00.626Z,1011.33
2019-06-07T01:10:00.701Z,1011.27
2019-06-07T01:11:00.774Z,1011.24
2019-06-07T01:12:00.819Z,1011.25
2019-06-07T01:13:00.936Z,1011.23
2019-06-07T01:14:00.943Z,1011.23
2019-06-07T01:15:01.015Z,1011.23
2019-06-07T01:16:01.079Z,1011.21
2019-06-07T01:17:22.219Z,1011.23
2019-06-07T01:18:33.498Z,1011.19
2019-06-07T01:19:01.259Z,1011.23
2019-06-07T01:20:01.331Z,1011.20
2019-06-07T01:21:01.393Z,1011.21
2019-06-07T01:22:01.447Z,1011.19
2019-06-07T01:23:01.513Z,1011.18
2019-06-07T01:24:11.452Z,1011.14
2019-06-07T01:25:01.645Z,1011.10
2019-06-07T01:26:01.708Z,1011.12
2019-06-07T01:27:01.764Z,1011.14
2019-06-07T01:28:01.831Z,1011.14
2019-06-07T01:29:01.899Z,1011.13
2019-06-07T01:30:01.965Z,1011.11
2019-06-07T01:31:02.024Z,1011.12
2019-06-07T01:32:02.079Z,1011.10
2019-06-07T01:33:02.141Z,1011.09
2019-06-07T01:34:02.217Z,1011.11
2019-06-07T01:35:02.284Z,1011.12
2019-06-07T01:36:02.329Z,1011.10
2019-06-07T01:37:02.421Z,1011.12
2019-06-07T01:38:02.458Z,1011.15
2019-06-07T01:39:02.516Z,1011.13
2019-06-07T01:40:02.588Z,1011.11
2019-06-07T01:41:02.652Z,1011.12
2019-06-07T01:42:02.709Z,1011.12
2019-06-07T01:43:02.768Z,1011.11
2019-06-07T01:44:02.858Z,1011.13
2019-06-07T01:45:03.137Z,1011.11
2019-06-07T01:46:02.967Z,1011.16
2019-06-07T01:47:03.021Z,1011.15
2019-06-07T01:48:03.084Z,1011.13
2019-06-07T01:49:03.151Z,1011.13
2019-06-07T01:50:03.228Z,1011.15
2019-06-07T01:51:03.320Z,1011.12
2019-06-07T01:52:03.387Z,1011.15
2019-06-07T01:53:03.397Z,1011.11
2019-06-07T01:54:48.841Z,1011.13
2019-06-07T01:55:03.533Z,1011.15
2019-06-07T01:56:03.593Z,1011.15
2019-06-07T01:57:03.649Z,1011.18
2019-06-07T01:58:03.717Z,1011.18
2019-06-07T01:59:03.773Z,1011.13
2019-06-07T02:00:03.845Z,1011.13
2019-06-07T02:01:03.909Z,1011.11
2019-06-07T02:02:03.965Z,1011.06
2019-06-07T02:03:04.027Z,1011.09
2019-06-07T02:04:04.089Z,1011.07
2019-06-07T02:05:04.186Z,1011.01
2019-06-07T02:06:04.213Z,1011.02
2019-06-07T02:07:04.278Z,1010.97
2019-06-07T02:08:04.342Z,1010.96
2019-06-07T02:09:04.406Z,1010.95
2019-06-07T02:10:04.474Z,1010.96
2019-06-07T02:11:04.596Z,1010.95
2019-06-07T02:12:24.609Z,1010.94
2019-06-07T02:13:04.654Z,1010.91
2019-06-07T02:14:04.719Z,1010.92
2019-06-07T02:15:04.786Z,1010.91
2019-06-07T02:16:04.851Z,1010.89
2019-06-07T02:17:04.983Z,1010.89
2019-06-07T02:18:04.977Z,1010.85
2019-06-07T02:19:05.033Z,1010.84
2019-06-07T02:20:05.110Z,1010.85
2019-06-07T02:21:05.163Z,1010.84
2019-06-07T02:22:05.221Z,1010.83
2019-06-07T02:23:05.282Z,1010.85
2019-06-07T02:24:05.346Z,1010.84
2019-06-07T02:25:35.002Z,1010.84
2019-06-07T02:26:05.478Z,1010.83
2019-06-07T02:27:05.535Z,1010.86
2019-06-07T02:28:27.271Z,1010.82
2019-06-07T02:29:05.659Z,1010.81
2019-06-07T02:30:36.096Z,1010.81
2019-06-07T02:31:05.813Z,1010.77
2019-06-07T02:32:05.847Z,1010.79
2019-06-07T02:33:05.912Z,1010.77
2019-06-07T02:34:05.983Z,1010.69
2019-06-07T02:35:06.047Z,1010.73
2019-06-07T02:36:06.112Z,1010.69
2019-06-07T02:37:06.164Z,1010.66
2019-06-07T02:38:06.223Z,1010.63
2019-06-07T02:39:06.292Z,1010.64
2019-06-07T02:40:06.451Z,1010.61
2019-06-07T02:41:06.412Z,1010.61
2019-06-07T02:42:06.478Z,1010.62
2019-06-07T02:43:06.596Z,1010.62
2019-06-07T02:44:06.612Z,1010.60
2019-06-07T02:45:06.672Z,1010.62
2019-06-07T02:46:25.065Z,1010.60
2019-06-07T02:47:06.789Z,1010.62
2019-06-07T02:48:06.852Z,1010.63
2019-06-07T02:49:06.932Z,1010.59
2019-06-07T02:50:06.986Z,1010.58
2019-06-07T02:51:07.049Z,1010.62
2019-06-07T02:52:07.101Z,1010.63
2019-06-07T02:53:07.164Z,1010.67
2019-06-07T02:54:07.229Z,1010.65
2019-06-07T02:55:07.448Z,1010.62
2019-06-07T02:57:07.422Z,1010.59
2019-06-07T02:58:07.481Z,1010.56
2019-06-07T02:59:07.544Z,1010.53
2019-06-07T03:00:40.457Z,1010.48
2019-06-07T03:01:09.719Z,1010.54
2019-06-07T03:02:07.730Z,1010.51
2019-06-07T03:03:07.793Z,1010.47
2019-06-07T03:04:07.853Z,1010.47
2019-06-07T03:05:07.926Z,1010.48
2019-06-07T03:06:07.989Z,1010.46
2019-06-07T03:07:08.041Z,1010.46
2019-06-07T03:08:08.104Z,1010.44
2019-06-07T03:09:08.169Z,1010.47
2019-06-07T03:10:08.228Z,1010.46
2019-06-07T03:11:08.421Z,1010.45
2019-06-07T03:12:08.359Z,1010.44
2019-06-07T03:13:08.417Z,1010.43
2019-06-07T03:14:08.481Z,1010.39
2019-06-07T03:15:08.600Z,1010.40
2019-06-07T03:16:08.613Z,1010.38
2019-06-07T03:17:08.677Z,1010.40
2019-06-07T03:18:08.729Z,1010.38
2019-06-07T03:19:08.794Z,1010.41
2019-06-07T03:20:08.857Z,1010.40
2019-06-07T03:21:08.925Z,1010.41
2019-06-07T03:22:08.989Z,1010.37
2019-06-07T03:23:09.047Z,1010.41
2019-06-07T03:24:09.107Z,1010.35
2019-06-07T03:25:09.175Z,1010.32
2019-06-07T03:26:09.258Z,1010.29
2019-06-07T03:28:09.358Z,1010.24
2019-06-07T03:29:09.418Z,1010.24
2019-06-07T03:30:36.021Z,1010.22
2019-06-07T03:31:09.554Z,1010.24
2019-06-07T03:32:09.615Z,1010.28
2019-06-07T03:33:09.673Z,1010.26
2019-06-07T03:34:09.737Z,1010.26
2019-06-07T03:35:09.794Z,1010.22
2019-06-07T03:36:23.214Z,1010.24
2019-06-07T03:37:09.929Z,1010.23
2019-06-07T03:38:09.984Z,1010.23
2019-06-07T03:39:10.047Z,1010.26
2019-06-07T03:40:10.106Z,1010.21
2019-06-07T03:41:10.462Z,1010.22
2019-06-07T03:42:10.234Z,1010.25
2019-06-07T03:43:10.296Z,1010.26
2019-06-07T03:44:10.360Z,1010.29
2019-06-07T03:45:10.422Z,1010.29
2019-06-07T03:46:10.491Z,1010.30
2019-06-07T03:47:10.556Z,1010.26
2019-06-07T03:48:10.607Z,1010.29
2019-06-07T03:49:10.671Z,1010.33
2019-06-07T03:50:10.740Z,1010.29
2019-06-07T03:51:24.013Z,1010.29
2019-06-07T03:52:10.868Z,1010.27
2019-06-07T03:53:11.589Z,1010.26
2019-06-07T03:54:10.987Z,1010.25
2019-06-07T03:55:11.047Z,1010.28
2019-06-07T03:56:12.112Z,1010.30
2019-06-07T03:57:11.175Z,1010.28
2019-06-07T03:58:31.611Z,1010.32
2019-06-07T03:59:11.295Z,1010.29
2019-06-07T04:00:11.360Z,1010.28
2019-06-07T04:01:11.429Z,1010.28
2019-06-07T04:02:11.496Z,1010.24
2019-06-07T04:03:32.434Z,1010.24
2019-06-07T04:04:11.612Z,1010.27
2019-06-07T04:05:11.682Z,1010.23
2019-06-07T04:06:11.744Z,1010.27
2019-06-07T04:07:11.803Z,1010.24
2019-06-07T04:08:11.864Z,1010.24
2019-06-07T04:09:11.942Z,1010.26
2019-06-07T04:10:11.994Z,1010.26
2019-06-07T04:11:12.056Z,1010.27
2019-06-07T04:12:12.117Z,1010.20
2019-06-07T04:13:12.173Z,1010.22
2019-06-07T04:14:12.236Z,1010.12
2019-06-07T04:15:12.296Z,1010.19
2019-06-07T04:16:12.384Z,1010.16
2019-06-07T04:17:12.434Z,1010.12
2019-06-07T04:18:12.488Z,1010.15
2019-06-07T04:19:12.548Z,1010.12
2019-06-07T04:20:12.612Z,1010.14
2019-06-07T04:21:12.685Z,1010.12
2019-06-07T04:22:12.748Z,1010.14
2019-06-07T04:23:27.775Z,1010.18
2019-06-07T04:24:12.864Z,1010.17
2019-06-07T04:25:12.924Z,1010.13
2019-06-07T04:26:12.996Z,1010.15
2019-06-07T04:27:13.057Z,1010.13
2019-06-07T04:28:13.113Z,1010.13
2019-06-07T04:30:13.286Z,1010.04
2019-06-07T04:31:13.461Z,1010.04
2019-06-07T04:32:13.365Z,1010.01
2019-06-07T04:33:13.429Z,1010.01
2019-06-07T04:34:13.496Z,1009.98
2019-06-07T04:35:13.554Z,1009.99
2019-06-07T04:36:13.626Z,1009.96
2019-06-07T04:37:13.689Z,1009.95
2019-06-07T04:38:13.741Z,1009.93
2019-06-07T04:39:13.834Z,1009.86
2019-06-07T04:40:13.881Z,1009.87
2019-06-07T04:41:13.939Z,1009.87
2019-06-07T04:42:14.008Z,1009.89
2019-06-07T04:43:14.058Z,1009.90
2019-06-07T04:44:14.122Z,1009.93
2019-06-07T04:45:33.080Z,1009.90
2019-06-07T04:46:14.258Z,1009.89
2019-06-07T04:47:14.311Z,1009.86
2019-06-07T04:48:14.370Z,1009.89
2019-06-07T04:49:14.436Z,1009.85
2019-06-07T04:50:14.500Z,1009.78
2019-06-07T04:51:14.880Z,1009.74
2019-06-07T04:52:14.634Z,1009.74
2019-06-07T04:53:14.686Z,1009.76
2019-06-07T04:54:14.754Z,1009.74
2019-06-07T04:55:14.810Z,1009.78
2019-06-07T04:56:14.882Z,1009.75
2019-06-07T04:57:14.960Z,1009.74
2019-06-07T04:58:15.002Z,1009.74
2019-06-07T05:00:00.164Z,1009.69
2019-06-07T05:00:46.691Z,1009.71
2019-06-07T05:01:26.707Z,1009.66
2019-06-07T05:02:15.254Z,1009.66
2019-06-07T05:03:15.315Z,1009.68
2019-06-07T05:04:15.378Z,1009.69
2019-06-07T05:05:15.443Z,1009.65
2019-06-07T05:06:15.515Z,1009.67
2019-06-07T05:07:15.575Z,1009.64
2019-06-07T05:08:27.569Z,1009.69
2019-06-07T05:09:15.695Z,1009.69
2019-06-07T05:10:15.759Z,1009.75
2019-06-07T05:11:15.827Z,1009.70
2019-06-07T05:12:15.895Z,1009.69
2019-06-07T05:13:15.949Z,1009.71
2019-06-07T05:14:16.012Z,1009.65
2019-06-07T05:15:16.075Z,1009.70
2019-06-07T05:16:16.427Z,1009.63
2019-06-07T05:17:16.280Z,1009.64
2019-06-07T05:18:16.263Z,1009.63
2019-06-07T05:19:16.323Z,1009.59
2019-06-07T05:20:16.393Z,1009.63
2019-06-07T05:21:16.460Z,1009.58
2019-06-07T05:22:16.525Z,1009.57
2019-06-07T05:23:59.385Z,1009.54
2019-06-07T05:24:16.645Z,1009.54
2019-06-07T05:25:16.703Z,1009.51
2019-06-07T05:26:16.780Z,1009.48
2019-06-07T05:27:16.873Z,1009.50
2019-06-07T05:28:16.896Z,1009.50
2019-06-07T05:29:16.960Z,1009.48
2019-06-07T05:30:51.206Z,1009.50
2019-06-07T05:31:17.255Z,1009.52
2019-06-07T05:32:17.148Z,1009.51
2019-06-07T05:33:17.233Z,1009.47
2019-06-07T05:34:17.280Z,1009.48
2019-06-07T05:35:17.351Z,1009.40
2019-06-07T05:36:17.408Z,1009.44
2019-06-07T05:37:17.592Z,1009.39
2019-06-07T05:38:17.528Z,1009.36
2019-06-07T05:39:17.589Z,1009.36
2019-06-07T05:40:17.881Z,1009.38
2019-06-07T05:41:17.724Z,1009.45
2019-06-07T05:42:17.789Z,1009.37
2019-06-07T05:43:17.844Z,1009.44
2019-06-07T05:44:17.916Z,1009.48
2019-06-07T05:45:17.968Z,1009.46
2019-06-07T05:46:18.043Z,1009.41
2019-06-07T05:47:18.100Z,1009.46
2019-06-07T05:48:18.166Z,1009.43
2019-06-07T05:49:18.228Z,1009.40
2019-06-07T05:50:38.684Z,1009.41
2019-06-07T05:51:18.364Z,1009.45
2019-06-07T05:52:18.417Z,1009.38
2019-06-07T05:53:18.556Z,1009.42
2019-06-07T05:54:18.541Z,1009.39
2019-06-07T05:55:18.602Z,1009.40
2019-06-07T05:56:18.716Z,1009.42
2019-06-07T05:57:18.738Z,1009.39
2019-06-07T05:58:18.952Z,1009.40
2019-06-07T05:59:18.859Z,1009.39
2019-06-07T06:00:18.926Z,1009.41
2019-06-07T06:01:42.686Z,1009.38
2019-06-07T06:02:23.195Z,1009.29
2019-06-07T06:03:19.115Z,1009.33
2019-06-07T06:04:19.174Z,1009.30
2019-06-07T06:05:33.297Z,1009.25
2019-06-07T06:06:19.582Z,1009.23
2019-06-07T06:07:19.386Z,1009.25
2019-06-07T06:08:19.430Z,1009.24
2019-06-07T06:09:19.491Z,1009.27
2019-06-07T06:10:19.556Z,1009.26
2019-06-07T06:11:19.618Z,1009.27
2019-06-07T06:12:33.831Z,1009.35
2019-06-07T06:13:19.758Z,1010.51
2019-06-07T06:14:20.006Z,1012.00
2019-06-07T06:15:19.874Z,1013.01
2019-06-07T06:16:19.939Z,1012.42
2019-06-07T06:17:20.014Z,1012.60
2019-06-07T06:18:20.123Z,1012.33
2019-06-07T06:19:20.144Z,1012.36
2019-06-07T06:20:20.202Z,1013.12
2019-06-07T06:21:20.678Z,1013.06
2019-06-07T06:22:20.359Z,1013.09
2019-06-07T06:23:20.407Z,1013.09
2019-06-07T06:24:20.475Z,1012.33
2019-06-07T06:25:38.605Z,1011.82
2019-06-07T06:26:20.615Z,1011.56
2019-06-07T06:28:02.648Z,1011.72
2019-06-07T06:28:20.763Z,1011.49
2019-06-07T06:29:20.824Z,1011.35
2019-06-07T06:30:20.892Z,1011.12
2019-06-07T06:31:20.963Z,1011.20
2019-06-07T06:33:33.856Z,1010.80
2019-06-07T06:34:21.176Z,1010.76
2019-06-07T06:35:21.290Z,1010.42
2019-06-07T06:36:21.967Z,1010.17
2019-06-07T06:37:21.401Z,1010.47
2019-06-07T06:38:21.477Z,1010.42
2019-06-07T06:39:21.542Z,1010.47
2019-06-07T06:40:21.607Z,1010.57
2019-06-07T06:41:21.676Z,1010.83
2019-06-07T06:42:21.759Z,1010.79
2019-06-07T06:43:21.832Z,1010.14
2019-06-07T06:44:21.892Z,1010.03
2019-06-07T06:45:21.960Z,1010.67
2019-06-07T06:46:38.250Z,1010.29
2019-06-07T06:47:22.121Z,1010.84
2019-06-07T06:48:22.176Z,1010.64
2019-06-07T06:49:22.248Z,1011.13
2019-06-07T06:50:22.322Z,1010.95
2019-06-07T06:51:22.392Z,1010.97
2019-06-07T06:52:22.468Z,1011.27
2019-06-07T06:53:22.541Z,1010.64
2019-06-07T06:54:40.236Z,1011.44
2019-06-07T06:55:22.676Z,1011.10
2019-06-07T06:56:22.748Z,1011.34
2019-06-07T06:57:22.830Z,1011.70
2019-06-07T06:58:22.897Z,1012.34
2019-06-07T06:59:37.912Z,1011.87
2019-06-07T07:00:42.750Z,1011.55
2019-06-07T07:01:23.105Z,1011.48
2019-06-07T07:02:23.286Z,1011.71
2019-06-07T07:04:23.325Z,1011.46
2019-06-07T07:05:23.399Z,1010.58
2019-06-07T07:06:26.440Z,1011.26
2019-06-07T07:07:23.549Z,1010.99
2019-06-07T07:08:23.627Z,1010.73
2019-06-07T07:09:23.689Z,1010.69
2019-06-07T07:10:23.765Z,1010.62
2019-06-07T07:11:23.842Z,1010.34
2019-06-07T07:12:23.922Z,1010.40
2019-06-07T07:13:23.995Z,1010.39
2019-06-07T07:14:24.061Z,1010.27
2019-06-07T07:15:24.134Z,1009.93
2019-06-07T07:16:24.245Z,1009.75
2019-06-07T07:17:47.088Z,1009.86
2019-06-07T07:18:24.654Z,1009.92
2019-06-07T07:19:24.434Z,1009.94
2019-06-07T07:20:24.757Z,1009.89
2019-06-07T07:21:24.588Z,1010.06
2019-06-07T07:22:24.664Z,1009.93
2019-06-07T07:23:24.742Z,1009.87
2019-06-07T07:24:24.820Z,1009.58
2019-06-07T07:25:24.888Z,1009.81
2019-06-07T07:26:25.006Z,1009.85
2019-06-07T07:27:25.034Z,1009.72
2019-06-07T07:28:25.226Z,1009.66
2019-06-07T07:29:25.187Z,1009.56
2019-06-07T07:30:36.870Z,1009.55
2019-06-07T07:31:25.334Z,1009.66
2019-06-07T07:32:25.416Z,1009.45
2019-06-07T07:33:25.503Z,1009.38
2019-06-07T07:34:35.031Z,1009.33
2019-06-07T07:35:25.639Z,1009.20
2019-06-07T07:36:38.673Z,1009.57
2019-06-07T07:37:25.889Z,1009.43
2019-06-07T07:38:25.867Z,1009.48
2019-06-07T07:39:25.943Z,1009.30
2019-06-07T07:41:26.095Z,1009.26
2019-06-07T07:42:26.163Z,1009.23
2019-06-07T07:43:26.399Z,1009.29
2019-06-07T07:44:26.311Z,1009.31
2019-06-07T07:45:26.389Z,1009.27
2019-06-07T07:46:29.550Z,1009.21
2019-06-07T07:47:26.539Z,1009.12
2019-06-07T07:48:26.619Z,1009.19
2019-06-07T07:49:26.695Z,1009.25
2019-06-07T07:50:26.763Z,1009.20
2019-06-07T07:51:26.840Z,1009.14
2019-06-07T07:52:26.918Z,1009.03
2019-06-07T07:53:45.365Z,1009.14
2019-06-07T07:54:27.072Z,1009.10
2019-06-07T07:55:27.195Z,1009.04
2019-06-07T07:56:27.216Z,1009.02
2019-06-07T07:57:27.308Z,1009.01
2019-06-07T07:58:27.380Z,1008.92
2019-06-07T07:59:41.693Z,1008.93
2019-06-07T08:01:27.596Z,1008.95
2019-06-07T08:02:27.672Z,1008.94
2019-06-07T08:03:27.752Z,1009.02
2019-06-07T08:05:11.996Z,1008.96
2019-06-07T08:05:41.939Z,1008.93
2019-06-07T08:06:27.976Z,1008.85
2019-06-07T08:07:28.280Z,1008.84
2019-06-07T08:08:28.144Z,1008.84
2019-06-07T08:09:28.200Z,1008.80
2019-06-07T08:10:28.277Z,1008.77
2019-06-07T08:11:28.353Z,1008.76
2019-06-07T08:12:28.473Z,1008.69
2019-06-07T08:13:28.531Z,1008.63
2019-06-07T08:14:28.589Z,1008.64
2019-06-07T08:15:28.653Z,1008.65
2019-06-07T08:16:28.728Z,1008.60
2019-06-07T08:17:28.805Z,1008.53
2019-06-07T08:18:28.888Z,1008.58
2019-06-07T08:19:28.964Z,1008.56
2019-06-07T08:20:29.033Z,1008.56
2019-06-07T08:21:29.104Z,1008.57
2019-06-07T08:22:29.184Z,1008.48
2019-06-07T08:23:29.261Z,1008.43
2019-06-07T08:24:29.353Z,1008.48
2019-06-07T08:25:29.406Z,1008.40
2019-06-07T08:26:29.484Z,1008.39
2019-06-07T08:27:29.557Z,1008.27
2019-06-07T08:28:29.634Z,1008.23
2019-06-07T08:29:44.427Z,1008.23
2019-06-07T08:31:29.853Z,1008.03
2019-06-07T08:32:29.930Z,1008.08
2019-06-07T08:33:30.014Z,1007.98
2019-06-07T08:34:30.102Z,1007.89
2019-06-07T08:36:03.724Z,1007.82
2019-06-07T08:36:41.221Z,1007.80
2019-06-07T08:38:13.895Z,1007.76
2019-06-07T08:38:47.109Z,1007.80
2019-06-07T08:39:30.458Z,1007.68
2019-06-07T08:40:30.569Z,1007.71
2019-06-07T08:41:30.612Z,1007.72
2019-06-07T08:42:37.280Z,1007.58
2019-06-07T08:43:30.762Z,1007.66
2019-06-07T08:44:30.844Z,1007.58
2019-06-07T08:45:30.898Z,1007.57
2019-06-07T08:46:30.966Z,1007.50
2019-06-07T08:47:31.155Z,1007.57
2019-06-07T08:48:31.125Z,1007.58
2019-06-07T08:49:31.210Z,1007.55
2019-06-07T08:50:31.258Z,1007.56
2019-06-07T08:51:31.337Z,1007.66
2019-06-07T08:52:31.403Z,1007.62
2019-06-07T08:53:31.478Z,1007.62
2019-06-07T08:54:31.559Z,1007.63
2019-06-07T08:55:31.630Z,1007.55
2019-06-07T08:56:31.698Z,1007.53
2019-06-07T08:57:31.773Z,1007.54
2019-06-07T08:58:31.843Z,1007.50
2019-06-07T08:59:31.923Z,1007.52
2019-06-07T09:00:48.021Z,1007.44
2019-06-07T09:01:32.066Z,1007.35
2019-06-07T09:02:32.139Z,1007.46
2019-06-07T09:03:32.207Z,1007.46
2019-06-07T09:04:32.295Z,1007.42
2019-06-07T09:05:32.364Z,1007.36
2019-06-07T09:07:32.508Z,1007.36
2019-06-07T09:08:32.575Z,1007.37
2019-06-07T09:09:32.652Z,1007.28
2019-06-07T09:10:32.815Z,1007.27
2019-06-07T09:11:32.810Z,1007.22
2019-06-07T09:12:32.863Z,1007.23
2019-06-07T09:13:33.311Z,1007.25
2019-06-07T09:14:33.015Z,1007.23
2019-06-07T09:15:33.088Z,1007.15
2019-06-07T09:16:33.156Z,1007.29
2019-06-07T09:17:34.239Z,1007.18
2019-06-07T09:18:43.235Z,1007.11
2019-06-07T09:19:33.380Z,1007.08
2019-06-07T09:20:36.755Z,1007.02
2019-06-07T09:21:33.524Z,1007.00
2019-06-07T09:22:33.592Z,1007.00
2019-06-07T09:23:33.668Z,1006.99
2019-06-07T09:24:33.744Z,1006.92
2019-06-07T09:25:52.444Z,1006.84
2019-06-07T09:26:33.880Z,1006.75
2019-06-07T09:27:33.960Z,1006.74
2019-06-07T09:28:34.077Z,1006.70
2019-06-07T09:29:34.173Z,1006.74
2019-06-07T09:30:34.168Z,1006.57
2019-06-07T09:31:51.824Z,1006.60
2019-06-07T09:32:34.309Z,1006.60
2019-06-07T09:33:34.380Z,1006.64
2019-06-07T09:34:34.462Z,1006.56
2019-06-07T09:35:34.532Z,1006.47
2019-06-07T09:36:34.597Z,1006.47
2019-06-07T09:38:34.737Z,1006.40
2019-06-07T09:39:34.817Z,1006.43
2019-06-07T09:40:34.888Z,1006.46
2019-06-07T09:41:47.572Z,1006.31
2019-06-07T09:42:35.025Z,1006.42
2019-06-07T09:44:35.365Z,1006.33
2019-06-07T09:45:35.238Z,1006.30
2019-06-07T09:46:35.309Z,1006.30
2019-06-07T09:47:35.377Z,1006.23
2019-06-07T09:49:10.107Z,1006.36
2019-06-07T09:49:35.529Z,1006.33
2019-06-07T09:50:35.597Z,1006.41
2019-06-07T09:51:35.662Z,1006.35
2019-06-07T09:52:57.208Z,1006.26
2019-06-07T09:53:35.805Z,1006.24
2019-06-07T09:55:05.849Z,1006.19
2019-06-07T09:55:35.954Z,1006.22
2019-06-07T09:56:36.093Z,1006.25
2019-06-07T09:57:36.085Z,1006.29
2019-06-07T09:58:53.548Z,1006.20
2019-06-07T09:59:36.434Z,1006.33
2019-06-07T10:00:41.432Z,1006.26
2019-06-07T10:01:36.384Z,1006.21
2019-06-07T10:02:36.438Z,1006.17
2019-06-07T10:03:36.510Z,1006.19
2019-06-07T10:04:36.586Z,1006.16
2019-06-07T10:05:36.658Z,1006.19
2019-06-07T10:06:36.722Z,1006.14
2019-06-07T10:07:36.790Z,1006.10
2019-06-07T10:10:37.013Z,1006.11
2019-06-07T10:11:37.071Z,1006.10
2019-06-07T10:12:37.189Z,1006.10
2019-06-07T10:13:37.215Z,1006.04
2019-06-07T10:14:37.302Z,1006.06
2019-06-07T10:15:37.352Z,1005.98
2019-06-07T10:16:46.591Z,1006.00
2019-06-07T10:17:37.495Z,1005.97
2019-06-07T10:18:37.564Z,1005.95
2019-06-07T10:19:37.639Z,1005.87
2019-06-07T10:20:37.712Z,1005.93
2019-06-07T10:21:37.773Z,1005.93
2019-06-07T10:22:37.843Z,1005.88
2019-06-07T10:23:37.913Z,1006.01
2019-06-07T10:24:38.004Z,1005.94
2019-06-07T10:25:38.059Z,1005.88
2019-06-07T10:26:38.139Z,1005.86
2019-06-07T10:27:38.192Z,1005.86
2019-06-07T10:28:38.260Z,1005.92
2019-06-07T10:29:38.448Z,1005.96
2019-06-07T10:30:38.403Z,1005.85
2019-06-07T10:31:38.473Z,1005.97
2019-06-07T10:32:38.539Z,1005.93
2019-06-07T10:33:38.611Z,1005.91
2019-06-07T10:34:38.689Z,1005.92
2019-06-07T10:35:38.758Z,1005.87
2019-06-07T10:36:38.834Z,1005.85
2019-06-07T10:37:38.889Z,1005.85
2019-06-07T10:38:38.960Z,1005.87
2019-06-07T10:39:48.539Z,1005.88
2019-06-07T10:40:39.104Z,1005.85
2019-06-07T10:41:39.168Z,1005.85
2019-06-07T10:42:39.244Z,1005.80
2019-06-07T10:43:39.304Z,1005.77
2019-06-07T10:44:39.668Z,1005.75
2019-06-07T10:45:39.445Z,1005.77
2019-06-07T10:46:39.516Z,1005.65
2019-06-07T10:47:39.585Z,1005.77
2019-06-07T10:48:39.652Z,1005.62
2019-06-07T10:49:39.728Z,1005.71
2019-06-07T10:50:39.800Z,1005.74
2019-06-07T10:51:39.862Z,1005.69
2019-06-07T10:52:39.930Z,1005.67
2019-06-07T10:53:40.003Z,1005.63
2019-06-07T10:54:40.268Z,1005.63
2019-06-07T10:55:40.137Z,1005.60
2019-06-07T10:56:40.207Z,1005.53
2019-06-07T10:57:40.278Z,1005.56
2019-06-07T10:58:40.345Z,1005.58
2019-06-07T10:59:40.421Z,1005.64
2019-06-07T11:00:40.490Z,1005.51
2019-06-07T11:01:40.555Z,1005.50
2019-06-07T11:02:40.621Z,1005.53
2019-06-07T11:03:40.690Z,1005.45
2019-06-07T11:04:40.766Z,1005.45
2019-06-07T11:05:40.837Z,1005.37
2019-06-07T11:06:40.897Z,1005.40
2019-06-07T11:07:40.967Z,1005.34
2019-06-07T11:08:41.037Z,1005.32
2019-06-07T11:09:41.222Z,1005.25
2019-06-07T11:10:41.173Z,1005.30
2019-06-07T11:11:41.243Z,1005.26
2019-06-07T11:12:41.310Z,1005.20
2019-06-07T11:13:41.381Z,1005.17
2019-06-07T11:14:41.457Z,1005.16
2019-06-07T11:15:41.532Z,1005.17
2019-06-07T11:16:41.586Z,1005.11
2019-06-07T11:17:41.654Z,1005.08
2019-06-07T11:18:41.726Z,1005.08
2019-06-07T11:19:41.802Z,1005.16
2019-06-07T11:20:41.870Z,1005.03
2019-06-07T11:21:41.934Z,1005.00
2019-06-07T11:22:42.002Z,1004.98
2019-06-07T11:23:42.071Z,1004.91
2019-06-07T11:24:42.150Z,1004.85
2019-06-07T11:25:42.206Z,1004.85
2019-06-07T11:26:42.274Z,1004.81
2019-06-07T11:27:42.346Z,1004.75
2019-06-07T11:28:42.424Z,1004.73
2019-06-07T11:29:42.490Z,1004.68
2019-06-07T11:30:42.558Z,1004.70
2019-06-07T11:31:42.618Z,1004.66
2019-06-07T11:32:42.686Z,1004.64
2019-06-07T11:33:42.852Z,1004.63
2019-06-07T11:34:42.834Z,1004.67
2019-06-07T11:35:42.903Z,1004.64
2019-06-07T11:36:42.966Z,1004.65
2019-06-07T11:37:43.036Z,1004.63
2019-06-07T11:38:43.103Z,1004.60
2019-06-07T11:39:43.287Z,1004.49
2019-06-07T11:40:43.240Z,1004.52
2019-06-07T11:41:43.307Z,1004.46
2019-06-07T11:42:43.380Z,1004.48
2019-06-07T11:43:43.447Z,1004.41
2019-06-07T11:44:56.246Z,1004.46
2019-06-07T11:45:43.591Z,1004.39
2019-06-07T11:46:43.659Z,1004.38
2019-06-07T11:47:43.724Z,1004.42
2019-06-07T11:48:43.808Z,1004.48
2019-06-07T11:49:43.868Z,1004.52
2019-06-07T11:50:43.942Z,1004.44
2019-06-07T11:51:43.999Z,1004.45
2019-06-07T11:52:46.335Z,1004.44
2019-06-07T11:53:44.136Z,1004.41
2019-06-07T11:54:47.905Z,1004.36
2019-06-07T11:55:44.277Z,1004.33
2019-06-07T11:56:44.344Z,1004.36
2019-06-07T11:57:44.431Z,1004.38
2019-06-07T11:58:44.484Z,1004.21
2019-06-07T11:59:44.556Z,1004.18
2019-06-07T12:00:44.628Z,1004.16
2019-06-07T12:01:44.688Z,1004.18
2019-06-07T12:02:44.760Z,1004.23
2019-06-07T12:03:44.831Z,1004.20
2019-06-07T12:04:44.904Z,1004.14
2019-06-07T12:05:44.972Z,1004.12
2019-06-07T12:06:45.036Z,1004.10
2019-06-07T12:07:45.104Z,1004.10
2019-06-07T12:08:45.172Z,1003.99
2019-06-07T12:09:55.907Z,1003.88
2019-06-07T12:10:45.328Z,1003.79
2019-06-07T12:11:45.380Z,1003.84
2019-06-07T12:12:45.449Z,1003.92
2019-06-07T12:13:45.521Z,1003.89
2019-06-07T12:14:45.590Z,1003.93
2019-06-07T12:15:48.800Z,1003.90
2019-06-07T12:16:45.737Z,1003.93
2019-06-07T12:17:45.805Z,1003.92
2019-06-07T12:18:45.875Z,1003.96
2019-06-07T12:19:45.941Z,1003.91